Time,TemperatureF,DewpointF,PressureIn,WindDirection,WindDirectionDegrees,WindSpeedMPH,WindSpeedGustMPH,Humidity,HourlyPrecipIn,Conditions,Clouds,dailyrainin,SolarRadiationWatts/m^2,SoftwareType,DateUTC
2013-01-31 00:12:00,30.9,23.0,30.23,East,90,2.0,4.0,73,0.00,,,0.00,0,weatherlink.com 1.10,2013-01-31 07:12:00,
2013-01-31 00:28:00,31.4,23.0,30.22,East,86,2.0,4.0,71,0.00,,,0.00,0,weatherlink.com 1.10,2013-01-31 07:28:00,
2013-01-31 00:42:00,31.1,23.0,30.22,East,87,1.0,4.0,71,0.00,,,0.00,0,weatherlink.com 1.10,2013-01-31 07:42:00,
2013-01-31 00:57:00,31.0,23.0,30.22,East,86,3.0,4.0,72,0.00,,,0.00,0,weatherlink.com 1.10,2013-01-31 07:57:00,
2013-01-31 01:12:00,30.9,23.0,30.22,East,86,0.0,4.0,72,0.00,,,0.00,0,weatherlink.com 1.10,2013-01-31 08:12:00,
2013-01-31 01:27:00,31.2,23.0,30.23,East,86,1.0,2.0,71,0.00,,,0.00,0,weatherlink.com 1.10,2013-01-31 08:27:00,
2013-01-31 01:42:00,31.0,23.0,30.23,East,86,1.0,3.0,72,0.00,,,0.00,0,weatherlink.com 1.10,2013-01-31 08:42:00,
2013-01-31 01:58:00,30.5,22.0,30.23,East,89,1.0,3.0,72,0.00,,,0.00,0,weatherlink.com 1.10,2013-01-31 08:58:00,
2013-01-31 02:13:00,31.1,22.0,30.23,East,89,0.0,2.0,70,0.00,,,0.00,0,weatherlink.com 1.10,2013-01-31 09:13:00,
2013-01-31 02:27:00,31.1,22.0,30.22,East,88,3.0,4.0,70,0.00,,,0.00,0,weatherlink.com 1.10,2013-01-31 09:27:00,
2013-01-31 02:42:00,31.3,22.0,30.22,East,86,0.0,3.0,69,0.00,,,0.00,0,weatherlink.com 1.10,2013-01-31 09:42:00,
2013-01-31 02:57:00,31.1,22.0,30.21,East,86,1.0,3.0,69,0.00,,,0.00,0,weatherlink.com 1.10,2013-01-31 09:57:00,
2013-01-31 03:12:00,31.6,22.0,30.22,East,86,0.0,3.0,67,0.00,,,0.00,0,weatherlink.com 1.10,2013-01-31 10:12:00,
2013-01-31 03:27:00,31.7,21.0,30.22,East,87,1.0,3.0,66,0.00,,,0.00,0,weatherlink.com 1.10,2013-01-31 10:27:00,
2013-01-31 03:42:00,31.5,22.0,30.21,East,85,3.0,3.0,67,0.00,,,0.00,0,weatherlink.com 1.10,2013-01-31 10:42:00,
2013-01-31 03:59:00,31.7,22.0,30.21,East,84,4.0,4.0,67,0.00,,,0.00,0,weatherlink.com 1.10,2013-01-31 10:59:00,
2013-01-31 04:12:00,31.7,21.0,30.20,East,84,3.0,3.0,66,0.00,,,0.00,0,weatherlink.com 1.10,2013-01-31 11:12:00,
2013-01-31 04:28:00,31.0,22.0,30.20,East,85,0.0,3.0,69,0.00,,,0.00,0,weatherlink.com 1.10,2013-01-31 11:28:00,
2013-01-31 04:43:00,30.3,22.0,30.19,East,86,1.0,3.0,70,0.00,,,0.00,0,weatherlink.com 1.10,2013-01-31 11:43:00,
2013-01-31 04:58:00,29.7,22.0,30.20,East,86,0.0,2.0,72,0.00,,,0.00,0,weatherlink.com 1.10,2013-01-31 11:58:00,
2013-01-31 05:14:00,29.5,21.0,30.20,East,86,0.0,2.0,71,0.00,,,0.00,0,weatherlink.com 1.10,2013-01-31 12:14:00,
2013-01-31 05:28:00,29.0,21.0,30.20,East,86,1.0,3.0,72,0.00,,,0.00,0,weatherlink.com 1.10,2013-01-31 12:28:00,
2013-01-31 05:44:00,29.5,22.0,30.20,East,85,2.0,3.0,72,0.00,,,0.00,0,weatherlink.com 1.10,2013-01-31 12:44:00,
2013-01-31 05:59:00,30.9,21.0,30.20,East,86,1.0,4.0,67,0.00,,,0.00,0,weatherlink.com 1.10,2013-01-31 12:59:00,
2013-01-31 06:14:00,30.8,21.0,30.20,East,86,0.0,2.0,68,0.00,,,0.00,0,weatherlink.com 1.10,2013-01-31 13:14:00,
2013-01-31 06:28:00,30.3,21.0,30.20,East,86,0.0,2.0,69,0.00,,,0.00,0,weatherlink.com 1.10,2013-01-31 13:28:00,
2013-01-31 06:43:00,30.5,21.0,30.20,East,87,1.0,1.0,68,0.00,,,0.00,0,weatherlink.com 1.10,2013-01-31 13:43:00,
2013-01-31 06:58:00,29.9,21.0,30.21,East,86,0.0,2.0,70,0.00,,,0.00,0,weatherlink.com 1.10,2013-01-31 13:58:00,
2013-01-31 07:14:00,29.7,21.0,30.21,East,86,1.0,2.0,69,0.00,,,0.00,0,weatherlink.com 1.10,2013-01-31 14:14:00,
2013-01-31 07:28:00,28.9,21.0,30.21,East,86,1.0,2.0,72,0.00,,,0.00,18,weatherlink.com 1.10,2013-01-31 14:28:00,
2013-01-31 07:43:00,29.4,21.0,30.21,East,86,1.0,2.0,72,0.00,,,0.00,35,weatherlink.com 1.10,2013-01-31 14:43:00,
2013-01-31 07:58:00,31.5,23.0,30.21,East,86,1.0,4.0,70,0.00,,,0.00,98,weatherlink.com 1.10,2013-01-31 14:58:00,
2013-01-31 08:13:00,34.3,24.0,30.21,East,86,0.0,1.0,65,0.00,,,0.00,155,weatherlink.com 1.10,2013-01-31 15:13:00,
2013-01-31 08:28:00,36.8,23.0,30.20,East,87,0.0,2.0,57,0.00,,,0.00,218,weatherlink.com 1.10,2013-01-31 15:28:00,
2013-01-31 08:44:00,39.8,22.0,30.21,ESE,115,0.0,3.0,49,0.00,,,0.00,306,weatherlink.com 1.10,2013-01-31 15:44:00,
2013-01-31 08:58:00,41.8,22.0,30.21,SSW,200,1.0,5.0,46,0.00,,,0.00,234,weatherlink.com 1.10,2013-01-31 15:58:00,
2013-01-31 09:13:00,42.3,23.0,30.21,SSW,200,0.0,2.0,46,0.00,,,0.00,267,weatherlink.com 1.10,2013-01-31 16:13:00,
2013-01-31 09:29:00,42.8,23.0,30.21,SSW,200,0.0,2.0,46,0.00,,,0.00,241,weatherlink.com 1.10,2013-01-31 16:29:00,
2013-01-31 09:43:00,43.4,23.0,30.21,SSW,200,1.0,2.0,45,0.00,,,0.00,232,weatherlink.com 1.10,2013-01-31 16:43:00,
2013-01-31 10:00:00,43.7,24.0,30.22,SSW,196,0.0,3.0,47,0.00,,,0.00,221,weatherlink.com 1.10,2013-01-31 17:00:00,
2013-01-31 10:14:00,43.9,24.0,30.22,SSW,197,0.0,1.0,45,0.00,,,0.00,223,weatherlink.com 1.10,2013-01-31 17:14:00,
2013-01-31 10:29:00,44.3,24.0,30.21,SSW,197,0.0,1.0,45,0.00,,,0.00,278,weatherlink.com 1.10,2013-01-31 17:29:00,
2013-01-31 10:44:00,45.1,25.0,30.20,ESE,113,3.0,4.0,46,0.00,,,0.00,404,weatherlink.com 1.10,2013-01-31 17:44:00,
2013-01-31 10:59:00,46.7,26.0,30.20,West,269,1.0,4.0,45,0.00,,,0.00,585,weatherlink.com 1.10,2013-01-31 17:59:00,
2013-01-31 11:14:00,49.2,28.0,30.20,SE,143,0.0,7.0,44,0.00,,,0.00,501,weatherlink.com 1.10,2013-01-31 18:14:00,
2013-01-31 11:29:00,51.8,29.0,30.19,SSE,152,0.0,8.0,41,0.00,,,0.00,622,weatherlink.com 1.10,2013-01-31 18:29:00,
2013-01-31 11:44:00,53.4,27.0,30.18,ENE,76,3.0,13.0,36,0.00,,,0.00,475,weatherlink.com 1.10,2013-01-31 18:44:00,
2013-01-31 12:00:00,53.8,24.0,30.18,ESE,116,5.0,11.0,32,0.00,,,0.00,570,weatherlink.com 1.10,2013-01-31 19:00:00,
2013-01-31 12:14:00,54.0,23.0,30.18,East,95,6.0,10.0,30,0.00,,,0.00,545,weatherlink.com 1.10,2013-01-31 19:14:00,
2013-01-31 12:29:00,54.5,23.0,30.17,East,98,7.0,10.0,30,0.00,,,0.00,605,weatherlink.com 1.10,2013-01-31 19:29:00,
2013-01-31 12:44:00,54.6,24.0,30.16,ESE,102,6.0,10.0,31,0.00,,,0.00,408,weatherlink.com 1.10,2013-01-31 19:44:00,
2013-01-31 12:59:00,54.7,24.0,30.14,ESE,111,9.0,12.0,30,0.00,,,0.00,422,weatherlink.com 1.10,2013-01-31 19:59:00,
2013-01-31 13:14:00,54.6,23.0,30.13,East,98,5.0,12.0,29,0.00,,,0.00,483,weatherlink.com 1.10,2013-01-31 20:14:00,
2013-01-31 13:30:00,55.1,23.0,30.12,ESE,109,7.0,11.0,29,0.00,,,0.00,434,weatherlink.com 1.10,2013-01-31 20:30:00,
2013-01-31 13:44:00,56.4,23.0,30.12,East,84,8.0,10.0,27,0.00,,,0.00,534,weatherlink.com 1.10,2013-01-31 20:44:00,
2013-01-31 14:00:00,57.8,21.0,30.11,NNE,21,8.0,15.0,24,0.00,,,0.00,445,weatherlink.com 1.10,2013-01-31 21:00:00,
2013-01-31 14:15:00,57.1,22.0,30.11,ENE,75,4.0,9.0,26,0.00,,,0.00,452,weatherlink.com 1.10,2013-01-31 21:15:00,
2013-01-31 14:30:00,56.9,21.0,30.11,East,98,4.0,7.0,25,0.00,,,0.00,306,weatherlink.com 1.10,2013-01-31 21:30:00,
2013-01-31 14:45:00,57.0,21.0,30.11,East,79,2.0,7.0,25,0.00,,,0.00,336,weatherlink.com 1.10,2013-01-31 21:45:00,
2013-01-31 15:00:00,57.2,20.0,30.11,SE,126,1.0,4.0,23,0.00,,,0.00,396,weatherlink.com 1.10,2013-01-31 22:00:00,
2013-01-31 15:15:00,57.3,22.0,30.11,SSW,203,7.0,7.0,26,0.00,,,0.00,304,weatherlink.com 1.10,2013-01-31 22:15:00,
2013-01-31 15:30:00,56.8,23.0,30.11,NNW,338,1.0,7.0,27,0.00,,,0.00,325,weatherlink.com 1.10,2013-01-31 22:30:00,
2013-01-31 15:45:00,57.1,22.0,30.11,SW,219,1.0,6.0,26,0.00,,,0.00,359,weatherlink.com 1.10,2013-01-31 22:45:00,
2013-01-31 16:00:00,57.3,23.0,30.11,West,276,2.0,5.0,27,0.00,,,0.00,311,weatherlink.com 1.10,2013-01-31 23:00:00,
2013-01-31 16:16:00,57.0,24.0,30.11,WNW,294,3.0,5.0,28,0.00,,,0.00,171,weatherlink.com 1.10,2013-01-31 23:16:00,
2013-01-31 16:30:00,57.3,25.0,30.10,WNW,294,0.0,2.0,29,0.00,,,0.00,255,weatherlink.com 1.10,2013-01-31 23:30:00,
2013-01-31 16:46:00,56.3,23.0,30.10,ESE,116,1.0,9.0,27,0.00,,,0.00,162,weatherlink.com 1.10,2013-01-31 23:46:00,
2013-01-31 17:00:00,55.8,22.0,30.10,ESE,109,4.0,6.0,27,0.00,,,0.00,123,weatherlink.com 1.10,2013-02-01 00:00:00,
2013-01-31 17:15:00,55.0,23.0,30.10,ENE,58,5.0,6.0,29,0.00,,,0.00,49,weatherlink.com 1.10,2013-02-01 00:15:00,
2013-01-31 17:30:00,53.2,23.0,30.10,ENE,70,5.0,8.0,31,0.00,,,0.00,35,weatherlink.com 1.10,2013-02-01 00:30:00,
2013-01-31 17:45:00,51.5,23.0,30.09,ENE,73,2.0,7.0,33,0.00,,,0.00,7,weatherlink.com 1.10,2013-02-01 00:45:00,
2013-01-31 18:00:00,49.9,24.0,30.10,ENE,74,2.0,5.0,36,0.00,,,0.00,5,weatherlink.com 1.10,2013-02-01 01:00:00,
2013-01-31 18:15:00,49.4,24.0,30.10,ENE,70,0.0,4.0,37,0.00,,,0.00,0,weatherlink.com 1.10,2013-02-01 01:15:00,
2013-01-31 18:30:00,48.7,23.0,30.11,East,89,2.0,3.0,37,0.00,,,0.00,0,weatherlink.com 1.10,2013-02-01 01:30:00,
2013-01-31 18:45:00,47.8,25.0,30.12,East,91,2.0,4.0,41,0.00,,,0.00,0,weatherlink.com 1.10,2013-02-01 01:45:00,
2013-01-31 19:00:00,46.6,24.0,30.12,East,81,2.0,4.0,42,0.00,,,0.00,0,weatherlink.com 1.10,2013-02-01 02:00:00,
2013-01-31 19:16:00,46.1,23.0,30.12,ENE,75,2.0,4.0,40,0.00,,,0.00,0,weatherlink.com 1.10,2013-02-01 02:16:00,
2013-01-31 19:30:00,45.8,26.0,30.13,East,88,3.0,4.0,47,0.00,,,0.00,0,weatherlink.com 1.10,2013-02-01 02:30:00,
2013-01-31 19:46:00,43.9,25.0,30.13,East,101,3.0,5.0,48,0.00,,,0.00,0,weatherlink.com 1.10,2013-02-01 02:46:00,
2013-01-31 20:00:00,43.7,25.0,30.13,East,84,1.0,5.0,48,0.00,,,0.00,0,weatherlink.com 1.10,2013-02-01 03:00:00,
2013-01-31 20:15:00,42.3,26.0,30.14,ENE,59,1.0,5.0,52,0.00,,,0.00,0,weatherlink.com 1.10,2013-02-01 03:15:00,
2013-01-31 20:30:00,42.2,25.0,30.13,East,90,1.0,4.0,50,0.00,,,0.00,0,weatherlink.com 1.10,2013-02-01 03:30:00,
2013-01-31 20:45:00,41.4,23.0,30.12,East,91,2.0,3.0,49,0.00,,,0.00,0,weatherlink.com 1.10,2013-02-01 03:45:00,
2013-01-31 21:00:00,41.0,21.0,30.13,East,93,1.0,4.0,46,0.00,,,0.00,0,weatherlink.com 1.10,2013-02-01 04:00:00,
2013-01-31 21:15:00,39.7,23.0,30.14,East,93,0.0,2.0,51,0.00,,,0.00,0,weatherlink.com 1.10,2013-02-01 04:15:00,
2013-01-31 21:30:00,38.0,24.0,30.13,East,82,0.0,2.0,57,0.00,,,0.00,0,weatherlink.com 1.10,2013-02-01 04:30:00,
2013-01-31 21:45:00,37.1,24.0,30.13,East,79,2.0,3.0,59,0.00,,,0.00,0,weatherlink.com 1.10,2013-02-01 04:45:00,
2013-01-31 22:00:00,37.8,24.0,30.13,ENE,73,3.0,4.0,58,0.00,,,0.00,0,weatherlink.com 1.10,2013-02-01 05:00:00,
2013-01-31 22:15:00,37.7,24.0,30.14,East,84,2.0,4.0,59,0.00,,,0.00,0,weatherlink.com 1.10,2013-02-01 05:15:00,
2013-01-31 22:30:00,37.6,23.0,30.13,East,79,1.0,3.0,57,0.00,,,0.00,0,weatherlink.com 1.10,2013-02-01 05:30:00,
2013-01-31 22:46:00,37.3,24.0,30.14,East,79,2.0,3.0,58,0.00,,,0.00,0,weatherlink.com 1.10,2013-02-01 05:46:00,
2013-01-31 23:00:00,37.9,24.0,30.15,East,88,2.0,4.0,57,0.00,,,0.00,0,weatherlink.com 1.10,2013-02-01 06:00:00,
2013-01-31 23:17:00,37.9,23.0,30.15,East,88,2.0,5.0,55,0.00,,,0.00,0,weatherlink.com 1.10,2013-02-01 06:17:00,
2013-01-31 23:30:00,36.8,24.0,30.15,East,80,1.0,3.0,60,0.00,,,0.00,0,weatherlink.com 1.10,2013-02-01 06:30:00,
2013-01-31 23:46:00,37.1,23.0,30.14,East,80,0.0,3.0,58,0.00,,,0.00,0,weatherlink.com 1.10,2013-02-01 06:46:00,